Time;durP1;ratioP1;P1;durP2;ratioP2;P2;SDS_P1;SDS_P2;PMS_P1;PMS_P2;Temp;Humidity;BMP_temperature;BMP_pressure;BME280_temperature;BME280_humidity;BME280_pressure;Samples;Min_cycle;Max_cycle;Signal;HPM_P1;HPM_P2
2022/07/21 00:03:03;;;;;;;13.13;7.03;;;;;;;24.04;45.05;99570.44;8420679;28;20604;-74
2022/07/21 00:07:04;;;;;;;15.88;6.90;;;;;;;23.95;44.97;99574.31;8421732;28;20044;-74
2022/07/21 00:11:07;;;;;;;17.63;7.00;;;;;;;23.88;45.75;99568.78;8407603;28;20070;-74
2022/07/21 00:15:08;;;;;;;20.45;6.68;;;;;;;23.83;45.82;99549.84;8388988;28;20048;-74
2022/07/21 00:19:10;;;;;;;14.93;7.20;;;;;;;23.78;45.77;99558.47;8425508;28;20052;-74
2022/07/21 00:23:11;;;;;;;22.45;7.30;;;;;;;23.76;45.98;99549.78;8412893;28;20052;-73
2022/07/21 00:27:12;;;;;;;15.07;7.05;;;;;;;23.72;46.14;99549.00;8411348;28;20471;-75
2022/07/21 00:31:13;;;;;;;13.18;6.90;;;;;;;23.69;46.33;99548.97;8419958;28;20044;-73
2022/07/21 00:35:15;;;;;;;12.90;6.85;;;;;;;23.64;46.28;99536.31;8403928;28;20047;-74
2022/07/21 00:39:15;;;;;;;17.88;7.05;;;;;;;23.61;46.31;99539.88;8425457;28;20056;-73
2022/07/21 00:43:17;;;;;;;18.35;6.57;;;;;;;23.60;46.82;99535.53;8414703;28;20044;-73
2022/07/21 00:47:22;;;;;;;14.65;6.90;;;;;;;23.54;46.89;99537.06;8414690;28;20048;-74
2022/07/21 00:51:27;;;;;;;20.20;6.68;;;;;;;23.46;47.09;99536.25;8368043;28;20062;-73
2022/07/21 00:55:28;;;;;;;11.48;7.22;;;;;;;23.43;46.82;99530.66;8411385;28;20036;-73
2022/07/21 00:59:29;;;;;;;12.82;7.03;;;;;;;23.39;46.92;99529.84;8418250;28;20697;-74
2022/07/21 01:03:30;;;;;;;15.52;6.95;;;;;;;23.38;47.15;99536.53;8429289;28;20421;-74
2022/07/21 01:07:31;;;;;;;11.88;6.53;;;;;;;23.33;47.25;99536.88;8387104;28;20043;-74
2022/07/21 01:11:32;;;;;;;14.90;7.07;;;;;;;23.23;47.82;99532.88;8410554;28;20079;-74
2022/07/21 01:15:34;;;;;;;15.13;7.40;;;;;;;23.15;48.13;99532.06;8425521;28;20059;-74
2022/07/21 01:19:35;;;;;;;10.98;6.78;;;;;;;23.12;48.06;99538.31;8410675;28;20055;-74
2022/07/21 01:23:36;;;;;;;11.82;6.90;;;;;;;23.08;48.45;99543.03;8414054;28;20109;-74
2022/07/21 01:27:38;;;;;;;11.43;7.15;;;;;;;23.01;48.83;99542.94;8401156;28;20048;-74
2022/07/21 01:31:43;;;;;;;13.38;7.53;;;;;;;22.96;48.91;99539.75;8420486;28;20044;-74
2022/07/21 01:35:45;;;;;;;12.93;7.25;;;;;;;22.90;49.02;99538.53;8396259;28;20083;-74
2022/07/21 01:44:09;;;;;;;14.10;6.82;;;;;;;22.77;50.09;99549.03;8416262;28;20122;-74
2022/07/21 01:48:10;;;;;;;13.05;7.03;;;;;;;22.71;50.11;99545.06;8415231;28;20119;-74
2022/07/21 01:52:11;;;;;;;16.38;7.03;;;;;;;22.66;50.31;99553.63;8418899;28;20071;-74
2022/07/21 01:56:12;;;;;;;14.88;7.78;;;;;;;22.57;50.70;99551.19;8385674;28;20139;-74
2022/07/21 02:00:13;;;;;;;15.85;8.48;;;;;;;22.49;51.17;99554.22;8364263;28;20044;-74
2022/07/21 02:04:15;;;;;;;14.68;7.55;;;;;;;22.41;51.68;99547.06;8417273;28;20040;-74
2022/07/21 02:08:16;;;;;;;10.48;6.85;;;;;;;22.39;51.65;99543.91;8414477;28;20044;-74
2022/07/21 02:12:17;;;;;;;10.75;7.20;;;;;;;22.28;51.96;99544.56;8399449;28;20071;-74
2022/07/21 02:16:18;;;;;;;20.85;7.22;;;;;;;22.23;52.13;99542.16;8419020;28;20060;-74
2022/07/21 02:20:19;;;;;;;13.43;7.00;;;;;;;22.15;52.68;99535.00;8412875;28;20055;-73
2022/07/21 02:24:20;;;;;;;11.77;6.90;;;;;;;22.10;52.86;99535.31;8388247;28;20556;-74
2022/07/21 02:28:21;;;;;;;14.65;7.40;;;;;;;22.04;53.16;99534.09;8418661;28;20419;-74
2022/07/21 02:32:22;;;;;;;19.48;7.30;;;;;;;21.99;53.14;99526.16;8399387;28;20047;-74
2022/07/21 02:36:23;;;;;;;10.00;6.93;;;;;;;21.94;53.20;99523.75;8417448;28;20044;-74
2022/07/21 02:40:25;;;;;;;15.30;7.13;;;;;;;21.92;52.93;99526.03;8409074;28;20052;-73
2022/07/21 02:44:26;;;;;;;12.70;6.90;;;;;;;21.87;53.35;99532.66;8419871;28;20043;-74
2022/07/21 02:48:27;;;;;;;11.88;6.63;;;;;;;21.81;53.47;99520.41;8417517;28;20047;-74
2022/07/21 02:52:28;;;;;;;15.80;6.80;;;;;;;21.78;53.87;99525.88;8419040;28;20049;-74
2022/07/21 02:56:29;;;;;;;13.70;7.22;;;;;;;21.73;54.10;99523.44;8424249;28;20052;-74
2022/07/21 03:00:32;;;;;;;12.07;6.45;;;;;;;21.71;54.12;99520.28;8415562;28;20055;-74
2022/07/21 03:04:33;;;;;;;15.50;7.03;;;;;;;21.67;54.17;99508.44;8390207;28;20048;-74
2022/07/21 03:08:35;;;;;;;13.77;6.88;;;;;;;21.68;54.09;99510.78;8422545;28;20050;-74
2022/07/21 03:12:36;;;;;;;11.68;6.78;;;;;;;21.66;54.51;99512.34;8394884;28;20055;-74
2022/07/21 03:16:37;;;;;;;12.02;6.70;;;;;;;21.63;54.71;99521.31;8418886;28;20250;-74
2022/07/21 03:20:40;;;;;;;10.85;6.90;;;;;;;21.64;54.71;99525.66;8411218;28;20048;-74
2022/07/21 03:24:41;;;;;;;10.27;6.70;;;;;;;21.64;54.80;99525.66;8410055;28;20051;-74
2022/07/21 03:28:44;;;;;;;13.43;6.55;;;;;;;21.65;54.84;99527.25;8388712;28;20051;-73
2022/07/21 03:32:46;;;;;;;12.68;7.20;;;;;;;21.64;54.85;99514.66;8406407;28;20055;-73
2022/07/21 03:36:47;;;;;;;12.20;7.13;;;;;;;21.61;55.18;99520.91;8413594;28;20415;-73
2022/07/21 03:40:48;;;;;;;12.82;6.65;;;;;;;21.62;55.35;99517.00;8387074;28;20050;-73
2022/07/21 03:44:49;;;;;;;13.50;7.30;;;;;;;21.63;55.36;99521.31;8410116;28;20047;-74
2022/07/21 03:48:50;;;;;;;14.57;7.63;;;;;;;21.60;55.86;99519.34;8415887;28;20471;-74
2022/07/21 03:52:51;;;;;;;21.02;7.70;;;;;;;21.63;55.52;99518.56;8415620;28;20078;-74
2022/07/21 03:56:53;;;;;;;15.88;7.80;;;;;;;21.66;55.44;99512.34;8415014;28;20064;-73
2022/07/21 04:00:53;;;;;;;11.88;7.25;;;;;;;21.69;55.34;99517.09;8415653;28;20056;-73
2022/07/21 04:04:55;;;;;;;14.65;7.32;;;;;;;21.69;55.50;99520.63;8403605;28;20056;-73
2022/07/21 04:08:56;;;;;;;17.23;7.20;;;;;;;21.71;55.92;99528.50;8407557;28;20438;-73
2022/07/21 04:12:59;;;;;;;14.23;7.72;;;;;;;21.68;55.95;99537.53;8402565;28;20545;-73
2022/07/21 04:17:00;;;;;;;14.43;7.93;;;;;;;21.69;55.92;99544.56;8406441;28;20391;-73
2022/07/21 04:21:01;;;;;;;14.43;7.47;;;;;;;21.66;56.20;99550.84;8383076;28;20052;-73
2022/07/21 04:25:04;;;;;;;16.88;6.88;;;;;;;21.68;56.26;99543.03;8399626;28;20151;-73
2022/07/21 04:29:05;;;;;;;17.10;7.40;;;;;;;21.71;56.39;99553.25;8385756;28;20177;-74
2022/07/21 04:33:06;;;;;;;17.63;7.95;;;;;;;21.69;56.90;99555.56;8394571;28;20044;-73
2022/07/21 04:37:07;;;;;;;14.52;7.80;;;;;;;21.70;56.77;99551.66;8409170;28;20491;-73
2022/07/21 04:41:08;;;;;;;14.82;8.07;;;;;;;21.75;56.74;99562.34;8424962;28;20059;-73
2022/07/21 04:45:11;;;;;;;12.95;7.40;;;;;;;21.76;57.00;99567.47;8407348;28;20396;-74
2022/07/21 04:49:12;;;;;;;14.32;7.78;;;;;;;21.81;56.63;99563.59;8413267;28;20071;-73
2022/07/21 04:53:14;;;;;;;17.15;7.88;;;;;;;21.89;56.71;99549.56;8368354;28;20522;-72
2022/07/21 04:57:15;;;;;;;31.98;7.75;;;;;;;21.94;56.41;99562.25;8421702;28;20126;-73
2022/07/21 05:01:19;;;;;;;11.25;6.90;;;;;;;21.98;56.48;99560.31;8345623;28;20064;-73
2022/07/21 05:05:20;;;;;;;11.40;7.10;;;;;;;22.05;56.33;99552.16;8432859;28;20143;-73
2022/07/21 05:09:22;;;;;;;13.15;7.13;;;;;;;22.09;56.51;99553.00;8432013;28;20044;-73
2022/07/21 05:13:22;;;;;;;20.67;7.97;;;;;;;22.15;56.54;99543.25;8418099;28;20117;-73
2022/07/21 05:17:24;;;;;;;19.63;7.80;;;;;;;22.18;56.71;99548.00;8382963;28;20040;-73
2022/07/21 05:21:25;;;;;;;18.95;7.38;;;;;;;22.23;56.84;99558.66;8430959;28;20056;-73
2022/07/21 05:25:26;;;;;;;15.20;7.53;;;;;;;22.33;56.46;99552.50;8431766;28;20032;-74
2022/07/21 05:29:27;;;;;;;15.00;7.30;;;;;;;22.43;56.75;99550.22;8430012;28;20097;-73
2022/07/21 05:33:28;;;;;;;17.00;7.63;;;;;;;22.53;56.82;99549.53;8342344;28;20587;-74
2022/07/21 05:37:29;;;;;;;14.07;7.03;;;;;;;22.62;56.47;99547.31;8416967;28;20578;-73
2022/07/21 05:41:30;;;;;;;24.40;7.25;;;;;;;22.71;56.41;99550.56;8403536;28;20044;-72
2022/07/21 05:45:31;;;;;;;14.18;6.93;;;;;;;22.79;56.09;99563.22;8408589;28;20040;-73
2022/07/21 05:49:32;;;;;;;18.65;7.00;;;;;;;22.89;56.09;99562.53;8431446;28;20142;-74
2022/07/21 05:53:33;;;;;;;14.35;6.78;;;;;;;22.96;55.62;99562.59;8416763;28;20051;-73
2022/07/21 05:57:34;;;;;;;12.65;6.70;;;;;;;23.05;55.81;99565.81;8431246;28;20055;-73
2022/07/21 06:01:38;;;;;;;14.38;7.10;;;;;;;23.14;55.96;99558.03;8381965;28;20068;-74
2022/07/21 06:05:39;;;;;;;12.35;7.18;;;;;;;23.27;55.70;99554.94;8399172;28;20506;-72
2022/07/21 06:09:40;;;;;;;10.63;6.60;;;;;;;23.36;55.25;99552.69;8359682;28;20061;-73
2022/07/21 06:13:42;;;;;;;16.45;6.72;;;;;;;23.45;55.23;99555.88;8360568;28;20057;-73
2022/07/21 06:17:44;;;;;;;19.98;6.90;;;;;;;23.56;54.94;99556.78;8325107;28;20112;-73
2022/07/21 06:21:46;;;;;;;16.15;6.70;;;;;;;23.66;54.77;99556.03;8359336;28;20045;-73
2022/07/21 06:25:47;;;;;;;13.93;6.47;;;;;;;23.74;54.30;99557.66;8326212;28;20041;-73
2022/07/21 06:29:48;;;;;;;20.15;7.38;;;;;;;23.88;54.15;99562.47;8309666;28;20045;-73
2022/07/21 06:33:49;;;;;;;13.52;6.32;;;;;;;23.96;53.76;99564.88;8359922;28;20049;-72
2022/07/21 06:37:50;;;;;;;20.08;6.88;;;;;;;24.07;53.86;99558.59;8355370;28;20052;-72
2022/07/21 06:41:54;;;;;;;9.90;6.28;;;;;;;24.18;53.37;99559.47;8428340;28;20498;-72
2022/07/21 06:45:58;;;;;;;17.00;6.85;;;;;;;24.31;53.54;99557.94;8429015;28;20499;-72
2022/07/21 06:50:03;;;;;;;12.45;6.63;;;;;;;24.45;53.20;99557.97;8410144;28;20061;-73
2022/07/21 06:54:04;;;;;;;13.68;6.68;;;;;;;24.55;52.48;99562.75;8406895;28;20423;-73
2022/07/21 06:58:13;;;;;;;14.65;6.45;;;;;;;24.65;52.42;99570.25;8414234;28;20055;-72
2022/07/21 07:02:15;;;;;;;13.18;6.07;;;;;;;24.75;52.98;99572.25;8383840;28;20048;-72
2022/07/21 07:06:16;;;;;;;9.82;6.30;;;;;;;24.92;51.80;99564.41;8420677;28;20043;-73
2022/07/21 07:10:17;;;;;;;9.57;6.50;;;;;;;25.04;51.50;99555.72;8392633;28;20044;-73
2022/07/21 07:14:19;;;;;;;10.55;6.57;;;;;;;25.17;51.18;99559.66;8424326;28;20589;-73
2022/07/21 07:18:21;;;;;;;15.27;6.47;;;;;;;25.34;50.81;99558.88;8414467;28;20101;-73
2022/07/21 07:22:22;;;;;;;15.25;5.75;;;;;;;25.47;50.51;99556.50;8427796;28;20048;-72
2022/07/21 07:26:23;;;;;;;11.77;6.43;;;;;;;25.61;49.77;99551.75;8406849;28;20048;-72
2022/07/21 07:30:24;;;;;;;9.45;5.70;;;;;;;25.75;49.90;99555.69;8390853;28;20044;-73
2022/07/21 07:34:25;;;;;;;12.05;6.20;;;;;;;25.90;50.20;99562.75;8427828;28;20043;-73
2022/07/21 07:38:26;;;;;;;14.10;6.07;;;;;;;26.03;49.96;99555.56;8367623;28;20568;-73
2022/07/21 07:42:27;;;;;;;13.20;6.25;;;;;;;26.20;49.10;99551.94;8392417;28;20048;-73
2022/07/21 07:46:28;;;;;;;14.77;5.65;;;;;;;26.41;48.52;99549.09;8421097;28;20487;-73
2022/07/21 07:50:30;;;;;;;16.60;6.35;;;;;;;26.54;48.34;99556.94;8382826;28;20059;-72
2022/07/21 07:54:31;;;;;;;9.80;5.82;;;;;;;26.66;48.04;99559.22;8410728;28;20086;-72
2022/07/21 07:58:33;;;;;;;12.85;5.88;;;;;;;26.80;47.69;99565.47;8410831;28;20044;-74
2022/07/21 08:02:34;;;;;;;11.38;5.22;;;;;;;26.95;47.03;99566.19;8426068;28;20055;-73
2022/07/21 08:06:35;;;;;;;13.55;5.55;;;;;;;27.12;46.18;99554.19;8404797;28;20062;-73
2022/07/21 08:10:36;;;;;;;8.18;5.80;;;;;;;27.28;45.21;99551.63;8419736;28;20039;-73
2022/07/21 08:14:38;;;;;;;13.15;5.47;;;;;;;27.43;45.92;99551.50;8421675;28;20551;-73
2022/07/21 08:18:39;;;;;;;9.27;5.47;;;;;;;27.65;45.46;99547.34;8427441;28;20048;-72
2022/07/21 08:22:40;;;;;;;13.10;5.53;;;;;;;27.84;43.42;99549.50;8428309;28;20126;-73
2022/07/21 08:26:41;;;;;;;13.25;5.13;;;;;;;27.98;42.96;99543.78;8407528;28;20051;-72
2022/07/21 08:30:42;;;;;;;8.93;4.70;;;;;;;28.08;42.94;99540.09;8428961;28;20044;-72
2022/07/21 08:34:46;;;;;;;13.30;5.07;;;;;;;28.34;41.99;99543.38;8431759;28;20056;-73
2022/07/21 08:38:49;;;;;;;12.20;4.72;;;;;;;28.53;41.82;99542.69;8424467;28;20056;-72
2022/07/21 08:42:52;;;;;;;6.88;4.68;;;;;;;28.70;41.56;99544.44;8392973;28;20052;-73
2022/07/21 08:46:54;;;;;;;8.63;4.60;;;;;;;28.89;39.65;99551.31;8427659;28;20059;-73
2022/07/21 08:50:56;;;;;;;10.93;5.03;;;;;;;29.04;38.98;99543.53;8391164;28;20491;-73
2022/07/21 08:54:57;;;;;;;10.00;4.80;;;;;;;29.19;38.80;99542.06;8377651;28;20082;-73
2022/07/21 08:58:58;;;;;;;6.72;4.90;;;;;;;29.35;39.09;99539.44;8419510;28;20055;-73
2022/07/21 09:03:22;;;;;;;8.93;4.15;;;;;;;29.51;39.32;99536.75;8351185;28;20411;-73
2022/07/21 09:07:23;;;;;;;7.90;4.03;;;;;;;29.71;38.63;99545.94;8416131;28;20057;-73
2022/07/21 09:11:26;;;;;;;10.23;4.55;;;;;;;29.89;37.29;99544.78;8423657;28;20051;-72
2022/07/21 09:15:29;;;;;;;7.45;4.10;;;;;;;30.00;37.12;99528.66;8412660;28;20045;-72
2022/07/21 09:19:33;;;;;;;6.95;4.18;;;;;;;30.18;36.75;99529.09;8407672;28;20139;-72
2022/07/21 09:23:34;;;;;;;8.65;4.70;;;;;;;30.34;36.18;99526.34;8419756;28;20044;-72
2022/07/21 09:27:35;;;;;;;5.30;4.18;;;;;;;30.49;35.34;99519.25;8431414;28;20040;-72
2022/07/21 09:31:36;;;;;;;25.45;4.85;;;;;;;30.65;34.99;99517.72;8422423;28;20036;-73
2022/07/21 09:35:37;;;;;;;7.00;3.25;;;;;;;30.79;34.45;99522.94;8417358;28;20052;-72
2022/07/21 09:39:42;;;;;;;8.15;4.50;;;;;;;30.90;34.61;99512.31;8416451;28;20078;-72
2022/07/21 09:43:49;;;;;;;10.02;3.63;;;;;;;31.07;34.76;99510.34;8426194;28;20093;-73
2022/07/21 09:47:49;;;;;;;6.45;4.25;;;;;;;31.19;34.51;99513.22;8417737;28;20060;-72
2022/07/21 09:51:50;;;;;;;10.32;3.42;;;;;;;31.32;34.05;99514.03;8390685;28;20056;-72
2022/07/21 09:55:52;;;;;;;9.57;4.18;;;;;;;31.41;33.41;99514.19;8418802;28;20044;-73
2022/07/21 09:59:54;;;;;;;8.93;4.20;;;;;;;31.53;33.83;99514.69;8426745;28;20060;-73
2022/07/21 10:03:56;;;;;;;10.05;3.70;;;;;;;31.64;34.13;99504.03;8424388;28;20059;-73
2022/07/21 10:08:02;;;;;;;14.15;3.85;;;;;;;31.76;33.54;99489.34;8414602;28;20052;-73
2022/07/21 10:12:02;;;;;;;5.80;3.25;;;;;;;31.85;33.08;99497.84;8415472;28;20484;-73
2022/07/21 10:16:04;;;;;;;7.30;3.70;;;;;;;31.96;32.58;99487.16;8427823;28;20514;-73
2022/07/21 10:20:13;;;;;;;16.10;3.38;;;;;;;32.11;31.98;99493.09;8424054;28;20056;-74
2022/07/21 10:24:16;;;;;;;7.68;3.50;;;;;;;32.22;32.26;99477.59;8413770;28;20123;-74
2022/07/21 10:28:27;;;;;;;4.15;3.08;;;;;;;32.33;31.83;99470.91;8306845;28;20053;-73
2022/07/21 10:32:33;;;;;;;11.15;3.40;;;;;;;32.45;31.22;99478.50;8355633;28;20363;-73
2022/07/21 10:36:38;;;;;;;4.78;2.78;;;;;;;32.53;31.05;99485.41;8325201;28;20045;-73
2022/07/21 10:40:40;;;;;;;3.35;2.60;;;;;;;32.60;29.59;99486.00;8352382;28;20459;-73
2022/07/21 10:44:45;;;;;;;8.93;2.78;;;;;;;32.71;29.00;99480.09;8356616;28;20953;-72
2022/07/21 10:48:47;;;;;;;13.45;2.63;;;;;;;32.77;28.59;99472.69;8348543;28;20508;-72
2022/07/21 10:52:49;;;;;;;6.65;2.55;;;;;;;32.89;29.34;99474.66;8345774;28;20119;-72
2022/07/21 10:57:24;;;;;;;7.13;2.50;;;;;;;33.01;28.37;99465.47;8350009;28;20056;-72
2022/07/21 11:01:25;;;;;;;4.28;2.60;;;;;;;33.19;28.52;99464.09;8342930;28;20045;-73
2022/07/21 11:05:28;;;;;;;10.07;3.63;;;;;;;33.32;29.55;99467.63;8322661;28;20107;-72
2022/07/21 11:09:31;;;;;;;9.50;3.00;;;;;;;33.36;29.44;99468.28;8360281;28;20072;-71
2022/07/21 11:14:07;;;;;;;6.68;3.22;;;;;;;33.48;27.40;99470.22;8427133;28;20051;-74
2022/07/21 11:18:08;;;;;;;11.82;2.83;;;;;;;33.62;27.53;99466.94;8421964;28;20052;-73
2022/07/21 11:22:12;;;;;;;14.05;3.45;;;;;;;33.75;28.14;99467.66;8414339;28;20064;-73
2022/07/21 11:26:16;;;;;;;7.13;3.20;;;;;;;33.80;27.47;99458.66;8404163;28;20052;-72
2022/07/21 11:30:18;;;;;;;10.30;3.35;;;;;;;33.87;27.05;99461.22;8423952;28;20135;-72
2022/07/21 11:34:19;;;;;;;8.70;3.20;;;;;;;33.98;26.82;99457.22;8400693;28;20036;-73
2022/07/21 11:38:20;;;;;;;7.03;3.35;;;;;;;34.09;27.25;99457.59;8405532;28;20043;-72
2022/07/21 11:42:21;;;;;;;7.53;3.65;;;;;;;34.14;27.75;99448.56;8407090;28;20141;-72
2022/07/21 11:46:22;;;;;;;12.15;3.22;;;;;;;34.06;27.61;99444.47;8379339;28;20049;-73
2022/07/21 11:50:23;;;;;;;6.63;3.45;;;;;;;34.02;26.10;99447.44;8418692;28;20056;-72
2022/07/21 11:54:37;;;;;;;11.50;4.00;;;;;;;34.10;26.05;99431.13;8426542;28;20495;-72
2022/07/21 11:58:38;;;;;;;11.35;4.90;;;;;;;34.28;26.59;99431.22;8423376;28;20067;-72
2022/07/21 12:02:39;;;;;;;12.32;3.60;;;;;;;34.28;26.35;99420.00;8429649;28;20107;-73
2022/07/21 12:06:40;;;;;;;16.00;3.35;;;;;;;34.35;26.87;99414.13;8430907;28;20076;-73
2022/07/21 12:10:41;;;;;;;9.38;3.50;;;;;;;34.52;26.90;99423.03;8421250;28;20516;-73
2022/07/21 12:14:47;;;;;;;13.23;3.90;;;;;;;34.67;26.95;99424.78;8432546;28;20048;-73
2022/07/21 12:18:49;;;;;;;8.73;3.53;;;;;;;34.81;26.60;99411.44;8434231;28;20096;-72
2022/07/21 12:22:53;;;;;;;16.15;3.85;;;;;;;34.92;25.88;99411.75;8417394;28;20052;-72
2022/07/21 12:27:10;;;;;;;9.55;4.13;;;;;;;34.90;26.14;99403.03;8413671;28;20048;-74
2022/07/21 12:31:14;;;;;;;14.63;4.70;;;;;;;34.98;25.71;99395.84;8365596;28;20051;-71
2022/07/21 12:35:27;;;;;;;13.98;4.13;;;;;;;35.07;25.79;99395.84;8419393;28;20059;-72
2022/07/21 12:43:59;;;;;;;12.57;3.95;;;;;;;35.30;24.07;99392.44;8374689;28;20147;-72
2022/07/21 12:48:17;;;;;;;12.90;3.85;;;;;;;35.38;24.61;99382.44;8418722;28;20075;-72
2022/07/21 12:52:20;;;;;;;12.82;3.90;;;;;;;35.37;24.86;99380.13;8401652;28;20458;-72
2022/07/21 12:56:25;;;;;;;12.20;4.45;;;;;;;35.45;24.65;99387.75;8429833;28;20554;-73
2022/07/21 13:00:28;;;;;;;13.02;4.55;;;;;;;35.48;24.99;99381.16;8431576;28;20056;-74
2022/07/21 13:04:29;;;;;;;12.55;4.38;;;;;;;35.59;25.52;99381.44;8367736;28;20463;-74
2022/07/21 13:08:31;;;;;;;22.83;4.45;;;;;;;35.59;25.27;99380.66;8363211;28;20442;-74
2022/07/21 13:12:35;;;;;;;8.57;4.20;;;;;;;35.69;24.92;99370.25;8422362;28;20523;-74
2022/07/21 13:16:37;;;;;;;11.68;4.28;;;;;;;35.71;25.03;99370.53;8431575;28;20131;-71
2022/07/21 13:20:38;;;;;;;14.65;4.88;;;;;;;35.72;24.81;99367.25;8428884;28;20052;-72
2022/07/21 13:24:40;;;;;;;15.15;4.65;;;;;;;35.72;24.57;99360.84;8432207;28;20068;-72
2022/07/21 13:28:41;;;;;;;13.73;5.10;;;;;;;35.81;24.79;99358.00;8411338;28;20044;-72
2022/07/21 13:33:06;;;;;;;16.25;4.60;;;;;;;35.76;24.95;99344.59;8359624;28;20053;-72
2022/07/21 13:37:11;;;;;;;12.73;4.63;;;;;;;35.75;24.87;99337.41;8310966;28;20049;-72
2022/07/21 13:41:16;;;;;;;15.07;4.30;;;;;;;36.84;24.32;99336.81;8266005;28;20045;-74
2022/07/21 13:45:17;;;;;;;17.27;5.63;;;;;;;37.92;23.28;99345.41;8350186;28;20055;-73
2022/07/21 13:49:20;;;;;;;12.80;5.00;;;;;;;39.11;21.94;99335.19;8339885;28;20056;-73
2022/07/21 13:53:21;;;;;;;13.45;5.22;;;;;;;40.34;21.21;99326.47;8403974;28;20053;-73
2022/07/21 13:57:23;;;;;;;8.73;4.78;;;;;;;41.40;20.41;99334.50;8413939;28;20040;-73
2022/07/21 14:01:25;;;;;;;8.95;4.38;;;;;;;42.16;19.96;99332.16;8413943;28;20052;-72
2022/07/21 14:05:27;;;;;;;12.35;4.70;;;;;;;42.50;18.15;99332.84;8426985;28;20068;-72
2022/07/21 14:09:29;;;;;;;14.38;4.50;;;;;;;43.31;18.41;99337.06;8393891;28;20079;-73
2022/07/21 14:13:31;;;;;;;8.00;4.50;;;;;;;43.90;17.12;99321.34;8430184;28;20174;-74
2022/07/21 14:17:32;;;;;;;10.50;4.30;;;;;;;44.35;17.40;99313.91;8377947;28;20133;-73
2022/07/21 14:21:54;;;;;;;14.02;4.35;;;;;;;45.12;16.69;99322.72;8413846;28;20049;-73
2022/07/21 14:25:57;;;;;;;9.65;4.15;;;;;;;45.49;17.00;99321.13;8341317;28;20129;-73
2022/07/21 14:30:00;;;;;;;11.27;4.10;;;;;;;45.71;15.53;99315.03;8338658;28;20106;-74
2022/07/21 14:34:02;;;;;;;14.98;4.75;;;;;;;45.51;15.28;99318.50;8370437;28;20060;-73
2022/07/21 14:49:46;;;;;;;10.05;4.30;;;;;;;46.74;14.00;99306.28;8497361;27;20120;-74
2022/07/21 14:53:50;;;;;;;17.23;4.45;;;;;;;46.64;14.10;99302.38;8476179;27;20040;-73
2022/07/21 14:57:51;;;;;;;17.85;4.70;;;;;;;47.18;13.19;99309.44;8471776;27;20039;-74
2022/07/21 15:01:53;;;;;;;16.70;4.38;;;;;;;47.63;12.83;99304.19;8465498;27;20624;-73
2022/07/21 15:05:54;;;;;;;13.05;4.00;;;;;;;47.67;13.09;99304.59;8419782;27;20052;-73
2022/07/21 15:09:58;;;;;;;9.95;3.97;;;;;;;47.07;12.93;99292.53;8449501;27;20058;-73
2022/07/21 15:14:02;;;;;;;12.52;4.07;;;;;;;46.79;13.38;99302.53;8468292;27;20047;-74
2022/07/21 15:18:04;;;;;;;14.10;4.70;;;;;;;47.29;13.21;99295.66;8429543;27;20035;-73
2022/07/21 15:22:07;;;;;;;16.35;4.90;;;;;;;47.58;13.34;99290.75;8472941;27;20401;-73
2022/07/21 15:26:10;;;;;;;13.88;4.40;;;;;;;48.32;13.27;99276.78;8474677;27;20059;-73
2022/07/21 15:30:14;;;;;;;16.05;4.60;;;;;;;47.76;12.49;99284.03;8474705;27;20060;-73
2022/07/21 15:34:15;;;;;;;12.82;4.53;;;;;;;46.89;13.08;99283.59;8476437;27;20051;-74
2022/07/21 15:38:21;;;;;;;13.50;3.85;;;;;;;46.22;13.37;99279.31;8384984;27;20046;-73
2022/07/21 15:42:24;;;;;;;22.63;4.85;;;;;;;44.80;14.79;99259.19;8469085;27;20051;-74
2022/07/21 15:46:25;;;;;;;14.02;4.13;;;;;;;43.73;15.63;99264.63;8439156;27;20487;-73
2022/07/21 15:50:27;;;;;;;10.90;4.50;;;;;;;42.57;16.14;99264.16;8457495;27;20078;-73
2022/07/21 15:54:29;;;;;;;16.30;4.72;;;;;;;41.39;17.11;99253.63;8455020;28;20117;-74
2022/07/21 15:59:33;;;;;;;9.07;3.88;;;;;;;40.43;17.84;99255.50;8404125;28;20168;-74
2022/07/21 16:02:58;;;;;;;11.40;4.55;;;;;;;39.56;18.30;99252.41;8449506;28;20047;-73
2022/07/21 16:07:01;;;;;;;12.05;4.75;;;;;;;39.04;19.08;99250.91;8411375;27;20052;-73
2022/07/21 16:11:02;;;;;;;9.65;4.30;;;;;;;38.22;19.75;99260.75;8446335;27;20044;-73
2022/07/21 16:15:06;;;;;;;14.15;4.55;;;;;;;37.84;19.87;99248.44;8454359;27;20055;-73
2022/07/21 16:19:07;;;;;;;40.45;5.07;;;;;;;37.75;20.66;99251.38;8436155;27;20055;-73
2022/07/21 16:23:28;;;;;;;19.20;5.00;;;;;;;37.18;21.18;99254.53;8388383;28;20562;-73
2022/07/21 16:27:29;;;;;;;20.35;4.97;;;;;;;36.65;21.88;99251.00;8390917;28;20094;-73
2022/07/21 16:31:35;;;;;;;13.13;4.47;;;;;;;36.23;22.26;99254.75;8387027;28;20158;-72
2022/07/21 16:35:37;;;;;;;21.30;5.13;;;;;;;35.79;22.79;99242.50;8339998;28;20110;-73
2022/07/21 16:39:38;;;;;;;32.42;5.72;;;;;;;35.43;23.67;99244.19;8393242;28;20229;-72
2022/07/21 16:43:39;;;;;;;64.57;6.65;;;;;;;35.16;24.62;99241.47;8387380;28;20080;-72
2022/07/21 16:47:42;;;;;;;23.67;4.63;;;;;;;34.97;24.95;99239.94;8383951;28;20064;-73
2022/07/21 16:51:43;;;;;;;16.85;5.32;;;;;;;34.81;25.16;99237.50;8380836;28;20431;-73
2022/07/21 16:55:45;;;;;;;14.50;4.30;;;;;;;34.65;25.99;99236.53;8383458;28;20074;-72
2022/07/21 16:59:47;;;;;;;14.55;4.78;;;;;;;34.47;26.55;99233.78;8372948;28;20051;-72
2022/07/21 17:03:49;;;;;;;11.60;4.07;;;;;;;34.33;26.90;99232.34;8455171;27;20422;-73
2022/07/21 17:07:50;;;;;;;21.55;4.50;;;;;;;34.18;27.36;99228.56;8405811;28;20046;-72
2022/07/21 17:11:52;;;;;;;23.73;5.40;;;;;;;34.07;27.63;99224.66;8432745;28;20052;-77
2022/07/21 17:15:54;;;;;;;13.95;5.05;;;;;;;33.93;28.14;99226.84;8435229;27;20070;-71
2022/07/21 17:19:55;;;;;;;12.25;4.57;;;;;;;33.72;28.72;99222.13;8411713;28;20513;-72
2022/07/21 17:23:57;;;;;;;13.85;4.53;;;;;;;33.52;29.41;99227.31;8401849;27;20076;-72
2022/07/21 17:27:59;;;;;;;14.57;5.32;;;;;;;33.36;29.87;99221.97;8404948;27;20415;-72
2022/07/21 17:32:00;;;;;;;20.45;4.93;;;;;;;33.18;30.79;99219.06;8440403;27;20130;-70
2022/07/21 17:36:02;;;;;;;15.95;5.32;;;;;;;33.02;31.28;99226.44;8401140;27;20051;-71
2022/07/21 17:40:04;;;;;;;11.95;5.18;;;;;;;32.89;31.64;99211.72;8367978;27;20154;-70
2022/07/21 17:44:05;;;;;;;13.35;5.50;;;;;;;32.78;31.68;99211.38;8410803;28;20071;-70
2022/07/21 17:48:07;;;;;;;21.05;5.93;;;;;;;32.58;32.00;99213.66;8404343;28;20109;-70
2022/07/21 17:52:09;;;;;;;16.50;5.18;;;;;;;32.40;32.38;99207.94;8439299;28;20552;-70
2022/07/21 17:56:11;;;;;;;17.67;5.55;;;;;;;32.23;32.59;99205.31;8439415;28;20039;-70
2022/07/21 18:00:13;;;;;;;18.02;5.65;;;;;;;32.03;32.47;99202.03;8423502;27;20040;-72
2022/07/21 18:04:14;;;;;;;22.27;5.47;;;;;;;31.80;33.10;99205.19;8461056;27;20035;-71
2022/07/21 18:08:17;;;;;;;18.70;5.72;;;;;;;31.57;33.83;99194.38;8450703;28;20481;-70
2022/07/21 18:12:19;;;;;;;19.75;5.32;;;;;;;31.33;34.39;99205.88;8434236;28;20462;-70
2022/07/21 18:16:20;;;;;;;17.58;5.22;;;;;;;31.07;35.16;99215.47;8434366;27;20036;-71
2022/07/21 18:20:22;;;;;;;15.77;5.65;;;;;;;30.85;35.81;99206.13;8453085;27;20046;-73
2022/07/21 18:24:24;;;;;;;23.50;5.75;;;;;;;30.63;36.00;99220.66;8462674;27;20422;-73
2022/07/21 18:28:25;;;;;;;17.42;5.80;;;;;;;30.42;36.01;99215.66;8379712;28;20062;-73
2022/07/21 18:32:27;;;;;;;14.20;5.78;;;;;;;30.26;36.29;99218.50;8434745;28;20075;-73
2022/07/21 18:36:28;;;;;;;17.35;5.40;;;;;;;30.04;36.93;99223.03;8451122;28;20120;-73
2022/07/21 18:40:52;;;;;;;20.98;5.35;;;;;;;29.86;37.14;99233.84;8399366;28;20455;-74
2022/07/21 18:44:53;;;;;;;26.90;5.93;;;;;;;29.49;37.91;99260.94;8374780;28;20056;-76
2022/07/21 18:48:56;;;;;;;17.38;5.28;;;;;;;29.28;38.09;99253.06;8370240;28;20093;-73
2022/07/21 18:53:18;;;;;;;21.90;6.53;;;;;;;29.30;36.91;99259.72;8389742;28;20482;-73
2022/07/21 18:57:21;;;;;;;12.70;6.53;;;;;;;29.33;36.06;99269.25;8374814;28;20044;-73
2022/07/21 19:01:29;;;;;;;21.88;6.65;;;;;;;29.58;35.98;99291.75;8247060;28;20133;-73
2022/07/21 19:05:50;;;;;;;17.10;6.40;;;;;;;29.71;35.81;99323.25;8199888;28;20047;-72
2022/07/21 19:09:52;;;;;;;15.25;6.30;;;;;;;29.76;35.78;99331.09;8210889;28;20650;-73
2022/07/21 19:14:01;;;;;;;12.70;6.78;;;;;;;29.74;35.80;99333.50;8212544;28;20050;-73